createdAt,value
2022-09-24T00:01:39.370Z,100311.45
2022-09-24T00:04:12.897Z,100309.92
2022-09-24T00:06:46.863Z,100310.47
2022-09-24T00:09:22.323Z,100306.45
2022-09-24T00:11:53.779Z,100305.84
2022-09-24T00:14:24.529Z,100303.34
2022-09-24T00:16:54.163Z,100299.65
2022-09-24T00:19:23.988Z,100299.86
2022-09-24T00:21:53.538Z,100301.03
2022-09-24T00:24:41.231Z,100298.48
2022-09-24T00:27:13.411Z,100297.33
2022-09-24T00:29:44.456Z,100296.17
2022-09-24T00:32:13.867Z,100292.48
2022-09-24T00:34:44.348Z,100292.98
2022-09-24T00:37:13.436Z,100292.23
2022-09-24T00:39:43.701Z,100286.95
2022-09-24T00:42:14.192Z,100283.93
2022-09-24T00:44:45.748Z,100279.05
2022-09-24T00:47:57.734Z,100276.01
2022-09-24T00:50:35.901Z,100275.08
2022-09-24T00:53:15.756Z,100268.36
2022-09-24T00:55:50.866Z,100267.86
2022-09-24T00:58:19.885Z,100266.66
2022-09-24T01:00:53.971Z,100265.45
2022-09-24T01:03:27.202Z,100259.92
2022-09-24T01:05:57.970Z,100258.84
2022-09-24T01:08:30.364Z,100257.23
2022-09-24T01:11:20.007Z,100254.60
2022-09-24T01:14:11.716Z,100253.76
2022-09-24T01:17:13.265Z,100253.27
2022-09-24T01:20:14.887Z,100252.29
2022-09-24T01:23:08.748Z,100249.14
2022-09-24T01:26:05.631Z,100246.50
2022-09-24T01:29:21.154Z,100243.61
2022-09-24T01:32:32.351Z,100242.84
2022-09-24T01:35:18.232Z,100240.59
2022-09-24T01:37:54.470Z,100240.07
2022-09-24T01:40:28.033Z,100238.98
2022-09-24T01:43:01.541Z,100238.81
2022-09-24T01:45:32.302Z,100236.73
2022-09-24T01:48:04.862Z,100234.98
2022-09-24T01:50:42.696Z,100235.48
2022-09-24T01:53:20.404Z,100230.77
2022-09-24T01:55:53.958Z,100229.56
2022-09-24T01:58:33.879Z,100231.59
2022-09-24T02:01:08.725Z,100233.22
2022-09-24T02:03:46.030Z,100233.05
2022-09-24T02:06:34.791Z,100235.18
2022-09-24T02:09:05.717Z,100234.11
2022-09-24T02:11:37.583Z,100235.42
2022-09-24T02:14:13.437Z,100235.36
2022-09-24T02:16:47.552Z,100236.63
2022-09-24T02:19:22.393Z,100236.77
2022-09-24T02:21:53.094Z,100234.26
2022-09-24T02:24:45.978Z,100234.39
2022-09-24T02:27:16.490Z,100235.54
2022-09-24T02:29:46.610Z,100233.52
2022-09-24T02:32:20.231Z,100233.98
2022-09-24T02:35:03.035Z,100231.98
2022-09-24T02:37:37.160Z,100233.15
2022-09-24T02:40:09.662Z,100230.36
2022-09-24T02:42:41.511Z,100233.23
2022-09-24T02:45:12.419Z,100231.23
2022-09-24T02:47:42.654Z,100230.11
2022-09-24T02:50:13.596Z,100231.91
2022-09-24T02:52:42.995Z,100227.13
2022-09-24T02:55:13.715Z,100233.05
2022-09-24T02:57:42.667Z,100230.58
2022-09-24T03:00:14.942Z,100225.62
2022-09-24T03:02:45.660Z,100227.20
2022-09-24T03:05:18.618Z,100227.66
2022-09-24T03:07:48.545Z,100227.45
2022-09-24T03:10:19.501Z,100229.27
2022-09-24T03:12:48.953Z,100228.11
2022-09-24T03:15:44.989Z,100227.96
2022-09-24T03:18:16.672Z,100224.54
2022-09-24T03:20:56.088Z,100227.27
2022-09-24T03:23:25.512Z,100221.92
2022-09-24T03:25:58.581Z,100221.48
2022-09-24T03:28:32.244Z,100223.05
2022-09-24T03:31:02.016Z,100224.02
2022-09-24T03:33:33.209Z,100222.61
2022-09-24T03:36:31.332Z,100218.45
2022-09-24T03:39:01.766Z,100216.33
2022-09-24T03:41:31.310Z,100218.13
2022-09-24T03:44:01.591Z,100218.41
2022-09-24T03:46:30.822Z,100219.05
2022-09-24T03:49:05.541Z,100217.47
2022-09-24T03:51:34.490Z,100222.36
2022-09-24T03:54:06.286Z,100222.20
2022-09-24T03:56:36.695Z,100219.19
2022-09-24T03:59:07.043Z,100222.36
2022-09-24T04:01:37.814Z,100222.89
2022-09-24T04:04:07.820Z,100219.80
2022-09-24T04:06:36.760Z,100221.61
2022-09-24T04:09:07.639Z,100217.95
2022-09-24T04:11:37.143Z,100219.70
2022-09-24T04:14:08.097Z,100216.50
2022-09-24T04:16:37.141Z,100216.94
2022-09-24T04:19:08.563Z,100219.00
2022-09-24T04:21:37.388Z,100215.36
2022-09-24T04:24:08.064Z,100215.77
2022-09-24T04:26:37.104Z,100214.00
2022-09-24T04:29:09.335Z,100209.34
2022-09-24T04:31:40.955Z,100209.34
2022-09-24T04:34:11.811Z,100208.33
2022-09-24T04:36:40.619Z,100205.61
2022-09-24T04:39:09.673Z,100207.97
2022-09-24T04:41:44.391Z,100203.36
2022-09-24T04:44:15.044Z,100203.48
2022-09-24T04:46:44.036Z,100202.98
2022-09-24T04:49:13.098Z,100205.15
2022-09-24T04:51:43.168Z,100209.82
2022-09-24T04:54:13.862Z,100208.29
2022-09-24T04:56:44.874Z,100205.92
2022-09-24T04:59:14.726Z,100209.26
2022-09-24T05:01:44.034Z,100211.14
2022-09-24T05:04:13.167Z,100203.88
2022-09-24T05:06:42.616Z,100205.16
2022-09-24T05:09:12.959Z,100207.64
2022-09-24T05:11:42.929Z,100207.80
2022-09-24T05:15:02.668Z,100206.96
2022-09-24T05:17:32.017Z,100210.41
2022-09-24T05:20:03.917Z,100208.60
2022-09-24T05:22:32.999Z,100208.55
2022-09-24T05:25:04.352Z,100210.00
2022-09-24T05:27:36.285Z,100203.73
2022-09-24T05:30:06.743Z,100203.91
2022-09-24T05:32:38.460Z,100202.79
2022-09-24T05:35:10.990Z,100207.95
2022-09-24T05:37:41.900Z,100208.10
2022-09-24T05:40:30.098Z,100203.78
2022-09-24T05:43:02.476Z,100202.91
2022-09-24T05:45:33.934Z,100203.99
2022-09-24T05:48:02.699Z,100201.63
2022-09-24T05:50:33.526Z,100201.38
2022-09-24T05:53:04.195Z,100205.72
2022-09-24T05:55:33.854Z,100203.73
2022-09-24T05:58:13.916Z,100204.41
2022-09-24T06:00:45.974Z,100203.92
2022-09-24T06:03:17.127Z,100205.30
2022-09-24T06:05:50.192Z,100203.65
2022-09-24T06:08:21.915Z,100203.89
2022-09-24T06:10:51.563Z,100201.39
2022-09-24T06:14:41.389Z,100199.87
2022-09-24T06:17:11.374Z,100201.55
2022-09-24T06:19:41.081Z,100201.06
2022-09-24T06:22:12.102Z,100197.35
2022-09-24T06:24:41.630Z,100193.30
2022-09-24T06:27:12.887Z,100199.05
2022-09-24T06:29:42.152Z,100195.96
2022-09-24T06:32:12.494Z,100197.08
2022-09-24T06:34:41.898Z,100190.36
2022-09-24T06:37:15.436Z,100191.64
2022-09-24T06:39:45.483Z,100191.00
2022-09-24T06:42:16.387Z,100188.95
2022-09-24T06:44:45.361Z,100186.73
2022-09-24T06:47:14.178Z,100186.75
2022-09-24T06:49:43.838Z,100187.48
2022-09-24T06:52:12.727Z,100186.54
2022-09-24T06:54:41.877Z,100187.02
2022-09-24T06:57:12.756Z,100185.11
2022-09-24T06:59:42.180Z,100185.34
2022-09-24T07:02:12.945Z,100181.95
2022-09-24T07:04:42.539Z,100178.83
2022-09-24T07:07:30.713Z,100182.23
2022-09-24T07:10:03.394Z,100186.06
2022-09-24T07:12:35.024Z,100184.06
2022-09-24T07:15:31.677Z,100188.77
2022-09-24T07:18:00.627Z,100192.63
2022-09-24T07:20:29.692Z,100193.02
2022-09-24T07:22:58.606Z,100193.27
2022-09-24T07:25:27.372Z,100197.77
2022-09-24T07:27:56.262Z,100194.27
2022-09-24T07:30:27.223Z,100192.98
2022-09-24T07:32:57.119Z,100198.68
2022-09-24T07:35:28.182Z,100202.27
2022-09-24T07:38:23.760Z,100200.42
2022-09-24T07:41:01.431Z,100197.90
2022-09-24T07:43:32.452Z,100200.85
2022-09-24T07:46:03.336Z,100197.33
2022-09-24T07:48:33.559Z,100203.96
2022-09-24T07:51:02.571Z,100202.23
2022-09-24T07:53:32.212Z,100198.56
2022-09-24T07:56:02.898Z,100203.27
2022-09-24T07:58:32.471Z,100201.64
2022-09-24T08:01:04.902Z,100198.64
2022-09-24T08:03:35.401Z,100199.98
2022-09-24T08:06:05.436Z,100196.84
2022-09-24T08:08:35.722Z,100197.52
2022-09-24T08:11:09.010Z,100202.25
2022-09-24T08:13:41.272Z,100205.67
2022-09-24T08:16:10.259Z,100205.50
2022-09-24T08:18:42.447Z,100206.60
2022-09-24T08:21:15.855Z,100203.58
2022-09-24T08:23:48.428Z,100200.65
2022-09-24T08:26:18.907Z,100205.34
2022-09-24T08:28:50.978Z,100200.44
2022-09-24T08:31:21.395Z,100199.80
2022-09-24T08:33:52.515Z,100203.94
2022-09-24T08:36:28.563Z,100209.91
2022-09-24T08:38:57.776Z,100204.93
2022-09-24T08:42:00.737Z,100205.02
2022-09-24T08:45:18.247Z,100204.89
2022-09-24T08:47:57.555Z,100205.73
2022-09-24T08:50:35.866Z,100211.15
2022-09-24T08:53:17.952Z,100210.57
2022-09-24T08:55:51.153Z,100206.36
2022-09-24T08:58:32.389Z,100209.95
2022-09-24T09:01:13.604Z,100207.39
2022-09-24T09:04:03.962Z,100201.48
2022-09-24T09:06:54.458Z,100198.94
2022-09-24T09:09:33.768Z,100194.56
2022-09-24T09:12:10.941Z,100197.20
2022-09-24T09:14:49.698Z,100201.75
2022-09-24T09:17:36.076Z,100198.76
2022-09-24T09:20:13.760Z,100195.54
2022-09-24T09:22:48.427Z,100190.73
2022-09-24T09:25:25.183Z,100193.63
2022-09-24T09:28:01.219Z,100190.96
2022-09-24T09:30:43.944Z,100191.56
2022-09-24T09:33:16.782Z,100193.76
2022-09-24T09:35:45.625Z,100195.99
2022-09-24T09:38:38.806Z,100196.21
2022-09-24T09:41:45.749Z,100191.08
2022-09-24T09:44:22.621Z,100191.35
2022-09-24T09:47:19.405Z,100191.20
2022-09-24T09:49:53.082Z,100189.63
2022-09-24T09:52:29.794Z,100189.98
2022-09-24T09:55:01.737Z,100187.98
2022-09-24T09:57:31.836Z,100188.64
2022-09-24T10:00:02.748Z,100184.94
2022-09-24T10:02:44.340Z,100189.34
2022-09-24T10:05:27.420Z,100187.33
2022-09-24T10:08:00.860Z,100186.81
2022-09-24T10:10:31.008Z,100190.07
2022-09-24T10:13:13.049Z,100191.58
2022-09-24T10:16:00.322Z,100192.09
2022-09-24T10:18:48.636Z,100191.05
2022-09-24T10:21:37.920Z,100187.53
2022-09-24T10:24:13.012Z,100196.01
2022-09-24T10:26:45.729Z,100193.75
2022-09-24T10:29:44.533Z,100193.17
2022-09-24T10:32:23.635Z,100192.52
2022-09-24T10:35:01.814Z,100196.28
2022-09-24T10:37:31.157Z,100195.02
2022-09-24T10:40:04.417Z,100193.65
2022-09-24T10:42:33.340Z,100194.44
2022-09-24T10:45:04.189Z,100189.89
2022-09-24T10:47:53.902Z,100183.08
2022-09-24T10:50:33.910Z,100185.24
2022-09-24T10:53:18.336Z,100185.98
2022-09-24T10:56:15.740Z,100186.21
2022-09-24T10:59:22.959Z,100182.39
2022-09-24T11:02:25.488Z,100183.94
2022-09-24T11:05:03.319Z,100182.78
2022-09-24T11:08:00.541Z,100181.70
2022-09-24T11:10:49.098Z,100176.83
2022-09-24T11:13:28.808Z,100174.08
2022-09-24T11:16:20.831Z,100174.77
2022-09-24T11:19:13.415Z,100173.38
2022-09-24T11:22:03.560Z,100173.94
2022-09-24T11:25:03.884Z,100173.13
2022-09-24T11:27:37.079Z,100175.40
2022-09-24T11:30:09.883Z,100173.80
2022-09-24T11:32:48.242Z,100172.23
2022-09-24T11:35:36.422Z,100172.52
2022-09-24T11:38:24.977Z,100169.68
2022-09-24T11:41:30.369Z,100168.84
2022-09-24T11:44:59.630Z,100167.63
2022-09-24T11:47:49.743Z,100169.73
2022-09-24T11:50:55.278Z,100168.98
2022-09-24T11:53:47.161Z,100168.67
2022-09-24T11:56:25.284Z,100164.09
2022-09-24T11:59:08.299Z,100159.23
2022-09-24T12:01:40.924Z,100159.07
2022-09-24T12:04:15.395Z,100160.05
2022-09-24T12:07:00.376Z,100150.92
2022-09-24T12:09:40.812Z,100153.75
2022-09-24T12:12:15.876Z,100152.00
2022-09-24T12:15:35.845Z,100150.45
2022-09-24T12:18:17.219Z,100150.59
2022-09-24T12:21:19.855Z,100151.17
2022-09-24T12:23:58.981Z,100150.70
2022-09-24T12:26:36.559Z,100145.41
2022-09-24T12:29:50.751Z,100142.38
2022-09-24T12:32:52.953Z,100142.27
2022-09-24T12:35:27.198Z,100140.17
2022-09-24T12:38:16.313Z,100141.20
2022-09-24T12:41:24.525Z,100139.28
2022-09-24T12:44:21.724Z,100138.80
2022-09-24T12:46:55.664Z,100132.50
2022-09-24T12:49:27.426Z,100137.01
2022-09-24T12:52:01.816Z,100135.63
2022-09-24T12:54:32.259Z,100136.35
2022-09-24T12:57:36.139Z,100134.40
2022-09-24T13:00:48.262Z,100131.25
2022-09-24T13:03:46.073Z,100129.52
2022-09-24T13:06:47.000Z,100130.27
2022-09-24T13:09:45.880Z,100127.61
2022-09-24T13:12:23.343Z,100126.17
2022-09-24T13:15:09.119Z,100128.76
2022-09-24T13:17:40.770Z,100129.63
2022-09-24T13:20:28.305Z,100129.90
2022-09-24T13:23:00.288Z,100127.23
2022-09-24T13:25:32.160Z,100123.70
2022-09-24T13:28:06.350Z,100126.08
2022-09-24T13:30:42.905Z,100124.60
2022-09-24T13:33:34.518Z,100124.11
2022-09-24T13:36:29.307Z,100125.03
2022-09-24T13:39:43.506Z,100119.20
2022-09-24T13:42:34.207Z,100117.11
2022-09-24T13:45:09.588Z,100117.58
2022-09-24T13:47:55.828Z,100117.80
2022-09-24T13:50:38.238Z,100115.86
2022-09-24T13:53:45.635Z,100117.50
2022-09-24T13:56:19.967Z,100116.66
2022-09-24T13:58:51.720Z,100113.14
2022-09-24T14:01:27.503Z,100111.98
2022-09-24T14:04:02.917Z,100108.90
2022-09-24T14:06:39.098Z,100103.85
2022-09-24T14:09:38.476Z,100107.28
2022-09-24T14:12:23.742Z,100102.80
2022-09-24T14:15:18.246Z,100103.65
2022-09-24T14:18:01.234Z,100100.08
2022-09-24T14:20:36.152Z,100102.29
2022-09-24T14:23:08.077Z,100098.00
2022-09-24T14:25:40.486Z,100102.84
2022-09-24T14:28:13.179Z,100099.44
2022-09-24T14:30:56.299Z,100093.08
2022-09-24T14:33:30.653Z,100091.55
2022-09-24T14:36:02.839Z,100089.54
2022-09-24T14:38:36.707Z,100088.38
2022-09-24T14:41:23.841Z,100086.55
2022-09-24T14:44:20.139Z,100086.30
2022-09-24T14:46:54.591Z,100088.09
2022-09-24T14:49:31.302Z,100088.05
2022-09-24T14:52:06.106Z,100087.31
2022-09-24T14:54:40.779Z,100092.66
2022-09-24T14:57:36.106Z,100086.52
2022-09-24T15:00:26.096Z,100089.98
2022-09-24T15:03:01.725Z,100090.11
2022-09-24T15:05:32.489Z,100090.11
2022-09-24T15:08:23.530Z,100085.63
2022-09-24T15:10:59.866Z,100088.04
2022-09-24T15:13:38.571Z,100087.09
2022-09-24T15:16:32.922Z,100090.38
2022-09-24T15:19:31.152Z,100085.64
2022-09-24T15:22:02.346Z,100087.47
2022-09-24T15:24:33.006Z,100087.82
2022-09-24T15:27:15.883Z,100087.86
2022-09-24T15:29:45.565Z,100088.25
2022-09-24T15:32:19.711Z,100087.83
2022-09-24T15:34:48.928Z,100084.17
2022-09-24T15:37:24.067Z,100082.29
2022-09-24T15:39:57.955Z,100079.88
2022-09-24T15:42:29.557Z,100083.27
2022-09-24T15:45:01.832Z,100080.02
2022-09-24T15:47:35.088Z,100083.02
2022-09-24T15:50:05.266Z,100084.30
2022-09-24T15:52:41.326Z,100085.48
2022-09-24T15:55:17.881Z,100084.75
2022-09-24T15:57:50.530Z,100083.48
2022-09-24T16:00:24.541Z,100082.77
2022-09-24T16:02:58.005Z,100083.67
2022-09-24T16:05:30.093Z,100082.00
2022-09-24T16:08:01.947Z,100084.14
2022-09-24T16:10:34.139Z,100084.95
2022-09-24T16:13:07.253Z,100088.46
2022-09-24T16:16:10.580Z,100087.00
2022-09-24T16:18:41.212Z,100084.71
2022-09-24T16:21:13.642Z,100084.82
2022-09-24T16:23:44.854Z,100093.45
2022-09-24T16:26:15.537Z,100095.78
2022-09-24T16:28:45.555Z,100093.60
2022-09-24T16:31:15.742Z,100096.20
2022-09-24T16:33:46.210Z,100097.83
2022-09-24T16:36:16.392Z,100099.52
2022-09-24T16:38:45.315Z,100100.86
2022-09-24T16:41:16.684Z,100101.18
2022-09-24T16:43:46.326Z,100100.55
2022-09-24T16:46:20.464Z,100103.45
2022-09-24T16:48:51.196Z,100101.30
2022-09-24T16:51:21.257Z,100098.09
2022-09-24T16:53:56.026Z,100097.39
2022-09-24T16:56:26.364Z,100099.55
2022-09-24T16:58:57.352Z,100100.02
2022-09-24T17:01:29.050Z,100099.82
2022-09-24T17:04:00.984Z,100101.33
2022-09-24T17:06:31.575Z,100098.18
2022-09-24T17:09:20.696Z,100097.84
2022-09-24T17:11:50.423Z,100098.48
2022-09-24T17:14:26.233Z,100098.37
2022-09-24T17:16:57.993Z,100099.94
2022-09-24T17:19:35.633Z,100099.27
2022-09-24T17:22:06.867Z,100100.02
2022-09-24T17:24:40.679Z,100096.41
2022-09-24T17:27:10.812Z,100098.88
2022-09-24T17:29:54.549Z,100093.80
2022-09-24T17:32:24.686Z,100093.83
2022-09-24T17:34:55.351Z,100095.89
2022-09-24T17:37:25.186Z,100095.73
2022-09-24T17:39:56.656Z,100096.45
2022-09-24T17:42:27.824Z,100095.23
2022-09-24T17:45:17.220Z,100100.54
2022-09-24T17:48:01.266Z,100100.95
2022-09-24T17:50:33.024Z,100105.34
2022-09-24T17:53:04.378Z,100105.70
2022-09-24T17:55:39.498Z,100103.83
2022-09-24T17:58:12.512Z,100103.73
2022-09-24T18:00:42.933Z,100104.31
2022-09-24T18:03:14.632Z,100103.31
2022-09-24T18:05:46.146Z,100104.45
2022-09-24T18:08:18.931Z,100108.20
2022-09-24T18:11:05.574Z,100108.29
2022-09-24T18:13:39.222Z,100111.25
2022-09-24T18:16:16.777Z,100113.92
2022-09-24T18:18:52.262Z,100117.95
2022-09-24T18:21:29.687Z,100120.07
2022-09-24T18:24:01.192Z,100117.19
2022-09-24T18:26:37.231Z,100119.28
2022-09-24T18:29:16.179Z,100119.59
2022-09-24T18:32:08.053Z,100118.37
2022-09-24T18:34:39.022Z,100117.23
2022-09-24T18:37:10.297Z,100118.63
2022-09-24T18:39:41.222Z,100121.81
2022-09-24T18:42:11.643Z,100121.64
2022-09-24T18:44:41.974Z,100122.95
2022-09-24T18:47:15.240Z,100120.62
2022-09-24T18:49:49.422Z,100119.73
2022-09-24T18:52:20.099Z,100122.78
2022-09-24T18:54:53.140Z,100122.58
2022-09-24T18:57:24.198Z,100121.23
2022-09-24T18:59:53.923Z,100123.30
2022-09-24T19:02:26.767Z,100124.70
2022-09-24T19:04:57.211Z,100127.42
2022-09-24T19:07:27.033Z,100124.91
2022-09-24T19:10:02.502Z,100127.23
2022-09-24T19:12:39.165Z,100126.67
2022-09-24T19:15:14.911Z,100129.77
2022-09-24T19:17:45.875Z,100127.19
2022-09-24T19:20:17.792Z,100128.81
2022-09-24T19:23:00.420Z,100126.09
2022-09-24T19:25:36.902Z,100121.78
2022-09-24T19:28:08.696Z,100124.04
2022-09-24T19:30:49.645Z,100122.55
2022-09-24T19:33:21.811Z,100130.03
2022-09-24T19:36:01.137Z,100128.76
2022-09-24T19:38:36.077Z,100128.39
2022-09-24T19:41:13.417Z,100134.39
2022-09-24T19:43:45.803Z,100137.86
2022-09-24T19:46:17.423Z,100136.85
2022-09-24T19:48:49.801Z,100135.35
2022-09-24T19:51:29.142Z,100133.58
2022-09-24T19:54:06.995Z,100130.91
2022-09-24T19:56:39.421Z,100128.43
2022-09-24T19:59:11.522Z,100129.45
2022-09-24T20:01:46.730Z,100128.88
2022-09-24T20:04:20.919Z,100127.77
2022-09-24T20:06:51.559Z,100126.65
2022-09-24T20:09:25.555Z,100126.54
2022-09-24T20:11:55.374Z,100123.56
2022-09-24T20:14:30.236Z,100125.48
2022-09-24T20:17:09.235Z,100126.02
2022-09-24T20:19:41.031Z,100123.99
2022-09-24T20:22:17.120Z,100122.05
2022-09-24T20:24:49.253Z,100118.07
2022-09-24T20:27:42.110Z,100119.44
2022-09-24T20:30:14.065Z,100120.70
2022-09-24T20:32:45.840Z,100119.37
2022-09-24T20:35:16.271Z,100120.09
2022-09-24T20:37:50.646Z,100117.61
2022-09-24T20:40:24.087Z,100111.06
2022-09-24T20:42:56.475Z,100111.21
2022-09-24T20:45:27.166Z,100109.98
2022-09-24T20:47:56.982Z,100112.41
2022-09-24T20:50:28.297Z,100107.88
2022-09-24T20:52:57.285Z,100111.48
2022-09-24T20:55:28.027Z,100112.64
2022-09-24T20:57:58.822Z,100113.31
2022-09-24T21:00:35.945Z,100113.52
2022-09-24T21:03:25.944Z,100111.21
2022-09-24T21:06:09.566Z,100114.36
2022-09-24T21:08:42.055Z,100113.44
2022-09-24T21:11:22.925Z,100115.84
2022-09-24T21:14:00.966Z,100115.34
2022-09-24T21:16:33.959Z,100115.69
2022-09-24T21:19:06.245Z,100119.20
2022-09-24T21:21:38.822Z,100120.47
2022-09-24T21:24:12.916Z,100119.67
2022-09-24T21:26:45.607Z,100121.09
2022-09-24T21:29:19.229Z,100122.31
2022-09-24T21:31:51.707Z,100117.40
2022-09-24T21:34:22.798Z,100119.50
2022-09-24T21:36:54.072Z,100120.28
2022-09-24T21:39:27.011Z,100119.05
2022-09-24T21:41:59.926Z,100120.90
2022-09-24T21:44:32.352Z,100120.31
2022-09-24T21:47:04.508Z,100119.03
2022-09-24T21:49:37.019Z,100115.28
2022-09-24T21:52:10.589Z,100117.07
2022-09-24T21:54:42.257Z,100115.18
2022-09-24T21:57:12.424Z,100114.02
2022-09-24T22:00:04.606Z,100113.00
2022-09-24T22:02:34.909Z,100113.90
2022-09-24T22:05:09.287Z,100113.05
2022-09-24T22:07:40.857Z,100113.55
2022-09-24T22:10:14.203Z,100115.40
2022-09-24T22:12:47.068Z,100119.64
2022-09-24T22:15:21.896Z,100119.34
2022-09-24T22:17:51.305Z,100115.00
2022-09-24T22:20:24.573Z,100121.92
2022-09-24T22:22:57.126Z,100121.04
2022-09-24T22:25:31.653Z,100121.10
2022-09-24T22:28:03.365Z,100119.14
2022-09-24T22:30:32.974Z,100117.89
2022-09-24T22:33:03.142Z,100118.08
2022-09-24T22:35:53.473Z,100116.64
2022-09-24T22:38:26.326Z,100113.06
2022-09-24T22:41:15.559Z,100112.02
2022-09-24T22:44:10.506Z,100109.86
2022-09-24T22:46:41.766Z,100105.98
2022-09-24T22:49:13.695Z,100106.86
2022-09-24T22:51:44.112Z,100104.46
2022-09-24T22:54:15.278Z,100101.65
2022-09-24T22:56:44.210Z,100100.85
2022-09-24T22:59:14.770Z,100102.02
2022-09-24T23:01:47.229Z,100102.61
2022-09-24T23:04:18.141Z,100099.25
2022-09-24T23:06:50.623Z,100101.23
2022-09-24T23:09:23.711Z,100102.06
2022-09-24T23:11:54.372Z,100097.41
2022-09-24T23:14:27.893Z,100098.75
2022-09-24T23:17:00.241Z,100098.92
2022-09-24T23:19:49.430Z,100096.84
2022-09-24T23:22:21.093Z,100096.76
2022-09-24T23:24:53.958Z,100096.45
2022-09-24T23:27:27.389Z,100094.78
2022-09-24T23:30:00.366Z,100092.30
2022-09-24T23:32:30.974Z,100092.36
2022-09-24T23:35:02.414Z,100090.87
2022-09-24T23:37:33.391Z,100087.27
2022-09-24T23:40:03.812Z,100085.16
2022-09-24T23:42:35.341Z,100083.09
2022-09-24T23:45:05.633Z,100082.55
2022-09-24T23:47:36.913Z,100082.42
2022-09-24T23:50:06.685Z,100084.95
2022-09-24T23:52:35.880Z,100084.98
2022-09-24T23:55:07.750Z,100083.48
2022-09-24T23:57:38.688Z,100083.77
